Time;durP1;ratioP1;P1;durP2;ratioP2;P2;SDS_P1;SDS_P2;PMS_P1;PMS_P2;Temp;Humidity;BMP_temperature;BMP_pressure;BME280_temperature;BME280_humidity;BME280_pressure;Samples;Min_cycle;Max_cycle;Signal;HPM_P1;HPM_P2
2021/07/21 00:00:19;;;;;;;17.05;9.75;;;13.20;97.80;;;;;;6218368;23;20005;-79
2021/07/21 00:02:45;;;;;;;19.05;10.77;;;13.10;97.90;;;;;;6193824;23;20321;-79
2021/07/21 00:05:12;;;;;;;17.40;9.45;;;13.10;98.00;;;;;;6219891;23;20028;-79
2021/07/21 00:07:41;;;;;;;17.92;10.73;;;13.00;98.00;;;;;;6219956;23;20243;-79
2021/07/21 00:10:09;;;;;;;16.98;10.10;;;13.00;98.00;;;;;;6219687;23;20037;-79
2021/07/21 00:15:24;;;;;;;17.67;10.18;;;13.10;98.00;;;;;;6218108;23;20012;-79
2021/07/21 00:17:58;;;;;;;16.80;10.35;;;13.10;97.90;;;;;;6219690;23;20000;-79
2021/07/21 00:20:24;;;;;;;19.33;9.95;;;13.10;97.90;;;;;;6219580;23;20378;-79
2021/07/21 00:22:50;;;;;;;17.25;10.52;;;13.00;98.00;;;;;;6193433;23;20001;-79
2021/07/21 00:25:16;;;;;;;16.10;9.65;;;12.80;98.00;;;;;;6219732;23;20004;-79
2021/07/21 00:27:44;;;;;;;20.05;10.75;;;12.70;98.00;;;;;;6219750;23;20024;-79
2021/07/21 00:30:13;;;;;;;19.42;10.38;;;12.60;98.00;;;;;;6191143;23;20008;-79
2021/07/21 00:32:39;;;;;;;17.25;10.20;;;12.70;98.00;;;;;;6219639;23;20125;-79
2021/07/21 00:35:13;;;;;;;21.10;11.60;;;12.60;98.00;;;;;;6219486;23;20036;-79
2021/07/21 00:37:39;;;;;;;18.92;10.38;;;12.60;98.00;;;;;;6219442;23;20236;-79
2021/07/21 00:40:08;;;;;;;23.98;11.23;;;12.60;98.00;;;;;;6219507;23;20080;-79
2021/07/21 00:42:33;;;;;;;18.48;9.90;;;12.60;98.00;;;;;;6219753;23;20005;-79
2021/07/21 00:44:59;;;;;;;21.50;10.40;;;12.60;98.00;;;;;;6217794;23;20270;-79
2021/07/21 00:47:25;;;;;;;20.83;11.10;;;12.50;98.00;;;;;;6193299;23;20381;-79
2021/07/21 00:49:51;;;;;;;20.38;10.82;;;12.60;98.00;;;;;;6219200;23;20054;-80
2021/07/21 00:52:17;;;;;;;20.75;10.45;;;12.60;98.00;;;;;;6219124;23;20003;-80
2021/07/21 00:54:45;;;;;;;21.38;10.60;;;12.60;98.00;;;;;;6219640;23;20004;-80
2021/07/21 00:57:12;;;;;;;18.67;10.73;;;12.50;98.00;;;;;;6192704;23;20007;-80
2021/07/21 00:59:37;;;;;;;21.83;10.85;;;12.50;98.00;;;;;;6218118;23;19997;-79
2021/07/21 01:02:04;;;;;;;19.33;10.85;;;12.40;98.00;;;;;;6219046;23;20054;-79
2021/07/21 01:04:32;;;;;;;20.25;10.63;;;12.40;98.00;;;;;;6219212;23;20084;-79
2021/07/21 01:07:00;;;;;;;20.52;10.43;;;12.40;98.00;;;;;;6219591;23;20076;-79
2021/07/21 01:09:26;;;;;;;18.00;10.50;;;12.40;98.00;;;;;;6219156;23;20011;-79
2021/07/21 01:12:29;;;;;;;22.25;11.02;;;12.30;98.00;;;;;;6192756;23;20008;-79
2021/07/21 01:15:12;;;;;;;15.65;9.48;;;12.30;98.00;;;;;;6217755;23;20267;-79
2021/07/21 01:17:46;;;;;;;18.05;10.80;;;12.30;98.00;;;;;;6193042;23;20008;-79
2021/07/21 01:20:55;;;;;;;17.40;10.50;;;12.30;98.00;;;;;;6192753;23;20320;-79
2021/07/21 01:23:48;;;;;;;17.40;10.32;;;12.30;98.00;;;;;;6219307;23;19993;-79
2021/07/21 01:26:27;;;;;;;17.27;10.00;;;12.40;98.00;;;;;;6219077;23;20000;-79
2021/07/21 01:28:54;;;;;;;17.65;10.30;;;12.40;98.00;;;;;;6192833;23;20363;-79
2021/07/21 01:31:41;;;;;;;22.00;11.52;;;12.50;98.00;;;;;;6189803;23;20143;-79
2021/07/21 01:34:10;;;;;;;16.25;9.48;;;12.50;98.00;;;;;;6192556;23;20001;-79
2021/07/21 01:36:42;;;;;;;22.00;11.10;;;12.50;98.00;;;;;;6218895;23;20366;-79
2021/07/21 01:39:14;;;;;;;20.17;10.43;;;12.50;98.00;;;;;;6219201;23;19996;-79
2021/07/21 01:41:47;;;;;;;17.42;10.45;;;12.40;98.00;;;;;;6192739;23;20035;-79
2021/07/21 01:44:18;;;;;;;18.27;11.20;;;12.40;98.00;;;;;;6219036;23;20355;-79
2021/07/21 01:46:50;;;;;;;20.10;10.45;;;12.40;98.00;;;;;;6191235;23;20020;-79
2021/07/21 01:49:17;;;;;;;24.30;11.55;;;12.40;98.00;;;;;;6218737;23;20243;-79
2021/07/21 01:51:44;;;;;;;22.63;11.60;;;12.40;98.00;;;;;;6218786;23;20429;-79
2021/07/21 01:54:10;;;;;;;19.08;11.05;;;12.30;98.00;;;;;;6192591;23;20271;-79
2021/07/21 01:56:37;;;;;;;20.77;10.52;;;12.30;98.00;;;;;;6218464;23;19997;-79
2021/07/21 01:59:06;;;;;;;24.10;11.00;;;12.30;98.00;;;;;;6192887;23;20391;-78
2021/07/21 02:01:33;;;;;;;19.23;10.55;;;12.30;98.00;;;;;;6217135;23;20075;-79
2021/07/21 02:04:02;;;;;;;21.13;11.15;;;12.20;98.00;;;;;;6218779;23;20055;-79
2021/07/21 02:06:31;;;;;;;20.52;11.40;;;12.20;98.00;;;;;;6219036;23;20005;-79
2021/07/21 02:08:57;;;;;;;19.65;11.13;;;12.20;98.00;;;;;;6192323;23;20013;-79
2021/07/21 02:11:25;;;;;;;22.10;10.48;;;12.20;98.00;;;;;;6218961;23;20013;-79
2021/07/21 02:13:55;;;;;;;22.30;11.30;;;12.30;98.00;;;;;;6192668;23;20004;-79
2021/07/21 02:16:21;;;;;;;25.25;12.02;;;12.30;98.00;;;;;;6217423;23;20046;-79
2021/07/21 02:18:47;;;;;;;18.92;10.75;;;12.30;98.00;;;;;;6192394;23;20298;-79
2021/07/21 02:21:13;;;;;;;28.85;12.10;;;12.20;98.00;;;;;;6192519;23;20420;-79
2021/07/21 02:23:40;;;;;;;22.05;11.70;;;12.20;98.00;;;;;;6218462;23;20383;-78
2021/07/21 02:26:07;;;;;;;20.13;11.45;;;12.20;98.00;;;;;;6191792;23;20013;-79
2021/07/21 02:28:34;;;;;;;18.45;11.65;;;12.20;98.00;;;;;;6192259;23;20012;-79
2021/07/21 02:31:04;;;;;;;18.92;11.77;;;12.20;98.00;;;;;;6190607;23;20009;-79
2021/07/21 02:33:43;;;;;;;18.65;11.35;;;12.20;98.00;;;;;;6218344;23;19996;-79
2021/07/21 02:36:09;;;;;;;23.65;11.90;;;12.20;98.00;;;;;;6218284;23;20001;-79
2021/07/21 02:38:35;;;;;;;25.67;11.95;;;12.20;98.00;;;;;;6219627;23;20000;-79
2021/07/21 02:41:01;;;;;;;23.95;11.43;;;12.20;98.00;;;;;;6220818;23;20375;-79
2021/07/21 02:43:27;;;;;;;20.40;11.55;;;12.20;98.00;;;;;;6220870;23;20010;-79
2021/07/21 02:45:53;;;;;;;21.08;11.50;;;12.10;98.00;;;;;;6219155;23;20379;-79
2021/07/21 02:48:19;;;;;;;17.48;10.68;;;12.10;98.00;;;;;;6220445;23;20054;-79
2021/07/21 02:50:51;;;;;;;20.98;11.45;;;12.10;98.00;;;;;;6220371;23;20001;-79
2021/07/21 02:53:22;;;;;;;19.67;11.18;;;12.10;98.00;;;;;;6194530;23;20270;-79
2021/07/21 02:55:56;;;;;;;22.92;12.07;;;12.10;98.00;;;;;;6193730;23;20456;-79
2021/07/21 02:58:36;;;;;;;20.60;11.55;;;12.10;98.00;;;;;;6194401;23;19996;-79
2021/07/21 03:01:03;;;;;;;22.90;11.68;;;12.10;98.00;;;;;;6219087;23;20000;-79
2021/07/21 03:03:31;;;;;;;21.35;11.02;;;12.10;98.00;;;;;;6220545;23;20005;-79
2021/07/21 03:06:03;;;;;;;20.67;11.27;;;12.00;98.00;;;;;;6194098;23;20036;-79
2021/07/21 03:08:29;;;;;;;21.90;11.15;;;11.90;98.00;;;;;;6194086;23;20012;-79
2021/07/21 03:11:00;;;;;;;22.90;12.43;;;11.90;98.00;;;;;;6220510;23;20008;-79
2021/07/21 03:13:30;;;;;;;20.02;11.40;;;11.90;98.00;;;;;;6194229;23;20001;-78
2021/07/21 03:15:58;;;;;;;19.48;11.77;;;12.00;98.00;;;;;;6218941;23;20032;-79
2021/07/21 03:18:30;;;;;;;24.15;11.80;;;12.00;98.00;;;;;;6220373;23;20434;-79
2021/07/21 03:20:57;;;;;;;18.80;11.00;;;12.10;98.00;;;;;;6220393;23;20005;-79
2021/07/21 03:23:25;;;;;;;22.58;11.65;;;12.10;98.00;;;;;;6193921;23;20355;-79
2021/07/21 03:25:54;;;;;;;22.13;12.45;;;12.10;98.00;;;;;;6220580;23;20003;-79
2021/07/21 03:28:21;;;;;;;20.10;12.02;;;12.00;98.00;;;;;;6219818;23;20000;-79
2021/07/21 03:30:48;;;;;;;23.30;12.85;;;12.00;98.00;;;;;;6217959;23;20011;-79
2021/07/21 03:33:17;;;;;;;20.23;11.88;;;12.10;98.00;;;;;;6220218;23;20012;-78
2021/07/21 03:35:44;;;;;;;22.02;12.07;;;12.10;98.00;;;;;;6219994;23;20000;-78
2021/07/21 03:38:11;;;;;;;20.02;11.48;;;12.10;98.00;;;;;;6193927;23;20000;-78
2021/07/21 03:40:38;;;;;;;24.20;11.55;;;12.20;98.00;;;;;;6219847;23;19996;-79
2021/07/21 03:43:04;;;;;;;22.25;11.80;;;12.20;98.00;;;;;;6193836;23;20004;-78
2021/07/21 03:45:31;;;;;;;17.75;11.27;;;12.10;98.00;;;;;;6218658;23;20013;-80
2021/07/21 03:47:57;;;;;;;22.88;12.30;;;12.00;98.00;;;;;;6193727;23;20011;-79
2021/07/21 03:50:25;;;;;;;22.50;12.13;;;11.90;98.00;;;;;;6192863;23;20008;-80
2021/07/21 03:52:52;;;;;;;23.15;12.13;;;11.90;98.00;;;;;;6220156;23;20000;-79
2021/07/21 03:55:21;;;;;;;20.65;12.15;;;11.90;98.00;;;;;;6193248;23;20000;-79
2021/07/21 03:57:47;;;;;;;23.10;12.05;;;12.00;98.00;;;;;;6193922;23;20267;-79
2021/07/21 04:00:18;;;;;;;24.05;13.05;;;12.00;98.00;;;;;;6217868;23;19997;-77
2021/07/21 04:02:49;;;;;;;20.45;11.57;;;12.00;98.00;;;;;;6193504;23;20307;-79
2021/07/21 04:05:15;;;;;;;26.73;12.88;;;12.00;98.00;;;;;;6193639;23;20039;-79
2021/07/21 04:07:43;;;;;;;18.70;11.40;;;12.00;98.00;;;;;;6193635;23;20115;-79
2021/07/21 04:10:10;;;;;;;20.02;11.25;;;12.00;98.00;;;;;;6192901;23;20012;-79
2021/07/21 04:12:40;;;;;;;17.92;11.25;;;11.90;98.00;;;;;;6219705;23;20000;-79
2021/07/21 04:15:07;;;;;;;19.33;10.93;;;11.70;98.00;;;;;;6217892;23;20048;-79
2021/07/21 04:17:34;;;;;;;19.27;11.32;;;11.70;98.00;;;;;;6220077;23;20067;-79
2021/07/21 04:20:00;;;;;;;19.92;10.73;;;11.70;98.00;;;;;;6219241;23;20001;-78
2021/07/21 04:22:27;;;;;;;22.35;12.32;;;11.80;98.00;;;;;;6193389;23;20082;-79
2021/07/21 04:24:54;;;;;;;21.55;11.40;;;11.70;98.00;;;;;;6193546;23;20062;-79
2021/07/21 04:27:20;;;;;;;18.02;10.85;;;11.70;98.00;;;;;;6219487;23;20025;-79
2021/07/21 04:29:48;;;;;;;23.10;12.95;;;11.80;98.00;;;;;;6191895;23;20009;-79
2021/07/21 04:32:14;;;;;;;21.25;11.38;;;11.80;98.00;;;;;;6218865;23;20004;-79
2021/07/21 04:34:43;;;;;;;24.67;11.65;;;11.90;98.00;;;;;;6219368;23;20266;-79
2021/07/21 04:37:09;;;;;;;16.90;11.05;;;12.00;98.00;;;;;;6193147;23;20031;-79
2021/07/21 04:39:35;;;;;;;19.70;11.23;;;12.10;98.00;;;;;;6193297;23;20032;-79
2021/07/21 04:42:03;;;;;;;18.25;10.68;;;12.20;98.00;;;;;;6219485;23;20032;-79
2021/07/21 04:44:29;;;;;;;18.17;10.45;;;12.40;98.00;;;;;;6217772;23;20005;-78
2021/07/21 04:46:58;;;;;;;17.42;10.73;;;12.50;98.00;;;;;;6219241;23;20031;-78
2021/07/21 04:49:26;;;;;;;18.50;10.60;;;12.60;98.00;;;;;;6219492;23;20005;-79
2021/07/21 04:51:56;;;;;;;18.20;11.88;;;12.60;98.00;;;;;;6219025;23;20023;-79
2021/07/21 04:54:21;;;;;;;17.27;10.52;;;12.60;98.00;;;;;;6193081;23;20088;-79
2021/07/21 04:56:47;;;;;;;17.63;10.18;;;12.60;98.00;;;;;;6219058;23;20020;-79
2021/07/21 04:59:13;;;;;;;17.17;10.13;;;12.60;98.00;;;;;;6219506;23;20001;-79
2021/07/21 05:01:40;;;;;;;18.70;10.68;;;12.70;98.00;;;;;;6191346;23;20040;-79
2021/07/21 05:04:06;;;;;;;17.77;10.35;;;12.80;98.00;;;;;;6218230;23;20393;-78
2021/07/21 05:06:32;;;;;;;20.27;10.88;;;12.90;98.00;;;;;;6219388;23;20362;-79
2021/07/21 05:08:58;;;;;;;17.38;10.40;;;12.90;98.00;;;;;;6218368;23;20055;-78
2021/07/21 05:11:24;;;;;;;18.90;9.85;;;13.00;98.00;;;;;;6218372;23;20011;-79
2021/07/21 05:13:51;;;;;;;17.38;10.75;;;13.10;98.00;;;;;;6219052;23;20001;-79
2021/07/21 05:16:17;;;;;;;17.70;10.30;;;13.30;98.00;;;;;;6217777;23;20011;-79
2021/07/21 05:18:43;;;;;;;18.00;10.02;;;13.30;98.00;;;;;;6219268;23;19996;-79
2021/07/21 05:21:09;;;;;;;16.17;10.05;;;13.40;98.00;;;;;;6218859;23;20397;-78
2021/07/21 05:23:35;;;;;;;17.17;9.90;;;13.50;98.00;;;;;;6192506;23;20005;-79
2021/07/21 05:26:01;;;;;;;17.98;9.98;;;13.60;98.00;;;;;;6219374;23;20046;-79
2021/07/21 05:28:28;;;;;;;16.08;9.75;;;13.70;98.00;;;;;;6219253;23;20036;-79
2021/07/21 05:30:54;;;;;;;21.23;10.77;;;13.70;98.00;;;;;;6191378;23;20012;-79
2021/07/21 05:33:20;;;;;;;16.13;10.20;;;13.70;98.00;;;;;;6219299;23;20028;-79
2021/07/21 05:35:46;;;;;;;18.80;12.27;;;13.70;98.00;;;;;;6218996;23;20004;-79
2021/07/21 05:38:13;;;;;;;19.25;11.60;;;13.70;98.00;;;;;;6219272;23;20000;-79
2021/07/21 05:40:38;;;;;;;20.13;10.95;;;13.80;98.00;;;;;;6219041;23;19997;-79
2021/07/21 05:43:05;;;;;;;19.98;11.63;;;13.90;98.00;;;;;;6219178;23;20001;-79
2021/07/21 05:45:31;;;;;;;18.27;11.18;;;14.00;98.00;;;;;;6217603;23;20008;-79
2021/07/21 05:47:57;;;;;;;20.40;11.70;;;14.20;98.00;;;;;;6218868;23;20007;-78
2021/07/21 05:50:22;;;;;;;28.27;12.80;;;14.30;98.00;;;;;;6219251;23;20000;-79
2021/07/21 05:52:48;;;;;;;19.17;11.13;;;14.50;98.00;;;;;;6192562;23;20015;-79
2021/07/21 05:55:14;;;;;;;20.65;11.13;;;14.70;97.50;;;;;;6219202;23;20024;-79
2021/07/21 05:57:44;;;;;;;20.40;11.27;;;14.90;97.40;;;;;;6219072;23;20032;-79
2021/07/21 06:00:10;;;;;;;20.65;10.63;;;14.90;97.20;;;;;;6217604;23;19996;-79
2021/07/21 06:02:36;;;;;;;20.55;11.73;;;15.00;96.90;;;;;;6218936;23;20004;-79
2021/07/21 06:05:03;;;;;;;18.23;10.48;;;15.20;96.80;;;;;;6219077;23;20032;-79
2021/07/21 06:07:29;;;;;;;20.58;10.95;;;15.30;96.80;;;;;;6218962;23;20060;-79
2021/07/21 06:09:55;;;;;;;19.60;11.07;;;15.40;96.50;;;;;;6219228;23;20008;-79
2021/07/21 06:12:21;;;;;;;16.50;10.45;;;15.50;96.30;;;;;;6218837;23;20016;-79
2021/07/21 06:14:46;;;;;;;20.55;11.13;;;15.60;96.20;;;;;;6219382;23;20027;-79
2021/07/21 06:17:12;;;;;;;17.90;10.65;;;15.70;96.10;;;;;;6194695;23;20000;-78
2021/07/21 06:19:38;;;;;;;19.52;11.23;;;15.70;95.80;;;;;;6221066;23;20000;-79
2021/07/21 06:22:04;;;;;;;18.23;11.27;;;15.90;95.70;;;;;;6194570;23;20012;-79
2021/07/21 06:24:30;;;;;;;17.90;10.73;;;16.00;95.60;;;;;;6221007;23;20028;-79
2021/07/21 06:26:56;;;;;;;19.58;10.80;;;16.10;95.60;;;;;;6221140;23;20366;-78
2021/07/21 06:29:22;;;;;;;18.60;10.35;;;16.10;95.60;;;;;;6194004;23;20016;-79
2021/07/21 06:31:48;;;;;;;21.05;10.80;;;16.20;95.90;;;;;;6220244;23;20426;-78
2021/07/21 06:34:14;;;;;;;18.10;10.75;;;16.30;95.60;;;;;;6220898;23;20000;-78
2021/07/21 06:36:39;;;;;;;20.40;9.95;;;16.40;95.40;;;;;;6220551;23;20072;-78
2021/07/21 06:39:05;;;;;;;17.90;10.80;;;16.40;95.40;;;;;;6221035;23;20026;-80
2021/07/21 06:41:31;;;;;;;21.77;9.77;;;16.40;95.40;;;;;;6194326;23;20009;-79
2021/07/21 06:44:00;;;;;;;18.27;10.52;;;16.40;95.40;;;;;;6220866;23;20011;-79
2021/07/21 06:46:26;;;;;;;17.02;10.25;;;16.60;95.20;;;;;;6219145;23;20051;-80
2021/07/21 06:48:52;;;;;;;19.17;9.88;;;16.80;94.70;;;;;;6220771;23;20083;-79
2021/07/21 06:51:28;;;;;;;21.40;10.93;;;17.00;94.30;;;;;;6220826;23;20008;-79
2021/07/21 06:53:53;;;;;;;18.23;10.30;;;17.00;94.40;;;;;;6220779;23;20046;-79
2021/07/21 06:56:19;;;;;;;19.25;10.65;;;17.20;94.00;;;;;;6220635;23;20409;-79
2021/07/21 06:58:45;;;;;;;17.55;10.45;;;17.40;93.50;;;;;;6220973;23;20128;-79
2021/07/21 07:01:10;;;;;;;22.27;10.45;;;17.50;93.40;;;;;;6219089;23;20000;-79
2021/07/21 07:03:36;;;;;;;19.90;10.00;;;17.50;93.30;;;;;;6220768;23;20007;-78
2021/07/21 07:06:03;;;;;;;23.83;11.13;;;17.70;92.60;;;;;;6194243;23;20084;-78
2021/07/21 07:08:29;;;;;;;19.20;10.43;;;17.80;92.40;;;;;;6220571;23;20050;-78
2021/07/21 07:10:55;;;;;;;18.13;10.50;;;18.00;91.70;;;;;;6194211;23;20012;-78
2021/07/21 07:13:21;;;;;;;18.17;10.15;;;18.10;91.80;;;;;;6220554;23;20385;-78
2021/07/21 07:15:46;;;;;;;17.58;10.15;;;18.10;91.90;;;;;;6218932;23;20001;-79
2021/07/21 07:18:18;;;;;;;15.82;10.07;;;18.20;92.70;;;;;;6220426;23;19997;-78
2021/07/21 07:20:48;;;;;;;16.77;10.27;;;18.50;91.80;;;;;;6220226;23;20001;-78
2021/07/21 07:23:14;;;;;;;21.63;10.63;;;18.70;90.70;;;;;;6220480;23;19997;-79
2021/07/21 07:25:42;;;;;;;21.23;11.20;;;18.60;90.40;;;;;;6193766;23;20000;-78
2021/07/21 07:28:08;;;;;;;17.45;10.05;;;18.60;90.50;;;;;;6220389;23;20001;-79
2021/07/21 07:30:34;;;;;;;17.83;10.07;;;18.60;90.80;;;;;;6219016;23;20355;-78
2021/07/21 07:33:01;;;;;;;22.13;10.88;;;18.70;91.50;;;;;;6220391;23;19997;-78
2021/07/21 07:35:27;;;;;;;18.60;10.55;;;18.90;91.10;;;;;;6220448;23;20008;-79
2021/07/21 07:37:53;;;;;;;16.10;10.02;;;19.10;90.30;;;;;;6220199;23;20004;-79
2021/07/21 07:40:19;;;;;;;19.23;10.30;;;19.70;88.90;;;;;;6220413;23;20016;-79
2021/07/21 07:42:45;;;;;;;20.13;10.40;;;20.60;87.00;;;;;;6220246;23;20008;-78
2021/07/21 07:45:12;;;;;;;18.98;10.30;;;21.50;84.90;;;;;;6218763;23;20023;-79
2021/07/21 07:47:37;;;;;;;18.35;10.05;;;22.30;82.10;;;;;;6220543;23;20001;-78
2021/07/21 07:50:09;;;;;;;22.50;10.15;;;23.00;79.90;;;;;;6220375;23;20008;-78
2021/07/21 07:52:36;;;;;;;27.33;10.23;;;23.50;78.20;;;;;;6220101;23;20371;-79
2021/07/21 07:55:04;;;;;;;14.43;8.68;;;24.10;77.30;;;;;;6220033;23;20055;-79
2021/07/21 07:57:29;;;;;;;14.18;8.55;;;24.80;75.00;;;;;;6193806;23;20015;-79
2021/07/21 07:59:55;;;;;;;14.05;8.40;;;25.50;73.90;;;;;;6218803;23;20083;-79
2021/07/21 08:02:21;;;;;;;14.43;9.40;;;25.60;73.00;;;;;;6193580;23;20058;-80
2021/07/21 08:04:46;;;;;;;14.10;8.30;;;25.60;72.40;;;;;;6220054;23;20004;-80
2021/07/21 08:07:12;;;;;;;15.00;8.35;;;25.50;72.70;;;;;;6220088;23;20004;-80
2021/07/21 08:09:38;;;;;;;16.98;9.07;;;25.50;72.70;;;;;;6219683;23;20008;-80
2021/07/21 08:12:04;;;;;;;13.90;8.43;;;25.20;72.50;;;;;;6219765;23;20263;-80
2021/07/21 08:14:30;;;;;;;15.93;8.45;;;25.10;72.30;;;;;;6218402;23;20023;-79
2021/07/21 08:16:56;;;;;;;14.00;8.10;;;25.70;70.50;;;;;;6193632;23;20055;-80
2021/07/21 08:19:23;;;;;;;16.60;8.55;;;26.00;70.60;;;;;;6220319;23;20027;-79
2021/07/21 08:21:50;;;;;;;14.00;7.30;;;26.80;68.10;;;;;;6219771;23;20009;-79
2021/07/21 08:24:16;;;;;;;13.45;8.00;;;26.60;69.10;;;;;;6219876;23;20004;-79
2021/07/21 08:26:43;;;;;;;13.57;8.40;;;26.90;68.10;;;;;;6193346;23;20016;-79
2021/07/21 08:29:08;;;;;;;12.75;8.13;;;26.60;68.00;;;;;;6220070;23;20028;-79
2021/07/21 08:31:35;;;;;;;18.92;8.93;;;26.20;67.80;;;;;;6218274;23;20363;-79
2021/07/21 08:34:02;;;;;;;15.48;8.23;;;25.60;70.20;;;;;;6219854;23;20047;-79
2021/07/21 08:36:29;;;;;;;20.90;9.55;;;25.80;71.30;;;;;;6193266;23;20005;-79
2021/07/21 08:38:54;;;;;;;15.05;8.90;;;26.40;69.80;;;;;;6219429;23;20009;-79
2021/07/21 08:41:20;;;;;;;13.95;8.45;;;26.50;68.60;;;;;;6219726;23;20008;-79
2021/07/21 08:43:46;;;;;;;13.35;9.18;;;26.50;67.70;;;;;;6219735;23;20011;-79
2021/07/21 08:46:13;;;;;;;19.02;9.27;;;26.30;69.10;;;;;;6215891;23;20020;-79
2021/07/21 08:48:38;;;;;;;16.40;9.25;;;26.70;68.10;;;;;;6219778;23;20004;-79
2021/07/21 08:51:04;;;;;;;15.18;8.88;;;26.60;67.50;;;;;;6219025;23;20004;-79
2021/07/21 08:53:31;;;;;;;16.30;9.65;;;26.30;70.10;;;;;;6219016;23;20005;-79
2021/07/21 08:55:58;;;;;;;17.33;9.27;;;26.60;67.20;;;;;;6219366;23;20047;-79
2021/07/21 08:58:24;;;;;;;14.05;9.55;;;26.40;69.30;;;;;;6219464;23;20258;-79
2021/07/21 09:00:53;;;;;;;14.18;8.68;;;26.80;68.30;;;;;;6218076;23;19997;-80
2021/07/21 09:03:21;;;;;;;18.38;9.32;;;27.20;67.40;;;;;;6219278;23;19993;-79
2021/07/21 09:05:52;;;;;;;16.45;9.30;;;26.90;68.40;;;;;;6219211;23;20006;-79
2021/07/21 09:08:18;;;;;;;17.05;9.18;;;27.00;68.20;;;;;;6193007;23;20011;-79
2021/07/21 09:10:45;;;;;;;16.27;10.13;;;27.20;67.40;;;;;;6219060;23;20411;-79
2021/07/21 09:13:13;;;;;;;19.80;10.48;;;27.20;66.90;;;;;;6193157;23;20307;-80
2021/07/21 09:15:42;;;;;;;14.20;8.68;;;27.00;67.60;;;;;;6217866;23;20000;-79
2021/07/21 09:18:14;;;;;;;13.90;8.70;;;27.50;66.50;;;;;;6219139;23;20004;-79
2021/07/21 09:20:57;;;;;;;16.35;9.82;;;27.90;67.50;;;;;;6219181;23;20068;-78
2021/07/21 09:24:01;;;;;;;15.32;9.15;;;28.00;65.30;;;;;;6192922;23;20008;-80
2021/07/21 09:26:26;;;;;;;15.10;8.68;;;28.10;65.60;;;;;;6156742;23;20014;-78
2021/07/21 09:28:52;;;;;;;16.33;9.48;;;27.80;65.90;;;;;;6156933;23;20012;-78
2021/07/21 09:31:32;;;;;;;15.40;9.30;;;27.80;65.80;;;;;;6184007;23;20011;-79
2021/07/21 09:33:58;;;;;;;16.65;9.82;;;27.40;65.70;;;;;;6192934;23;20071;-80
2021/07/21 09:36:23;;;;;;;14.23;8.68;;;27.40;65.80;;;;;;6218896;23;20043;-80
2021/07/21 09:38:58;;;;;;;16.15;9.25;;;27.90;66.30;;;;;;6219410;23;20355;-80
2021/07/21 09:41:24;;;;;;;14.38;9.63;;;28.00;65.00;;;;;;6218886;23;20026;-79
2021/07/21 09:44:04;;;;;;;16.83;9.07;;;27.20;66.30;;;;;;6192681;23;20405;-79
2021/07/21 09:46:34;;;;;;;16.73;10.32;;;26.90;68.60;;;;;;6190950;23;20023;-79
2021/07/21 09:49:00;;;;;;;15.45;9.00;;;26.90;66.70;;;;;;6219173;23;20008;-79
2021/07/21 09:51:38;;;;;;;13.70;9.00;;;27.10;67.60;;;;;;6218802;23;20076;-79
2021/07/21 09:54:15;;;;;;;16.88;9.27;;;27.50;65.40;;;;;;6192818;23;20005;-79
2021/07/21 09:56:41;;;;;;;14.60;9.70;;;26.90;68.20;;;;;;6192658;23;20059;-78
2021/07/21 09:59:23;;;;;;;16.30;8.85;;;27.30;67.20;;;;;;6219053;23;20000;-78
2021/07/21 10:01:49;;;;;;;14.30;9.15;;;27.60;66.50;;;;;;6218073;23;20001;-79
2021/07/21 10:04:33;;;;;;;16.88;9.10;;;27.90;66.50;;;;;;6218935;23;20058;-79
2021/07/21 10:06:59;;;;;;;;;;;28.10;66.80;;;;;;6192873;23;20307;-78
2021/07/21 10:09:25;;;;;;;14.63;8.88;;;28.50;64.90;;;;;;6192583;23;19908;-79
2021/07/21 10:11:53;;;;;;;15.05;9.10;;;28.90;65.30;;;;;;6218692;23;20009;-79
2021/07/21 10:14:18;;;;;;;18.30;9.48;;;29.10;64.10;;;;;;6218761;23;19997;-78
2021/07/21 10:16:52;;;;;;;13.80;9.02;;;28.70;64.60;;;;;;6217391;23;20012;-79
2021/07/21 10:19:30;;;;;;;17.00;9.23;;;28.40;65.30;;;;;;6192314;23;20001;-78
2021/07/21 10:22:00;;;;;;;15.75;9.32;;;28.30;65.80;;;;;;6192433;23;20428;-78
2021/07/21 10:24:34;;;;;;;14.05;9.55;;;28.70;64.40;;;;;;6192831;23;20009;-78
2021/07/21 10:27:01;;;;;;;14.60;9.43;;;28.20;64.00;;;;;;6218645;23;20001;-80
2021/07/21 10:29:27;;;;;;;15.25;9.07;;;27.70;66.10;;;;;;6217104;23;20001;-79
2021/07/21 10:31:54;;;;;;;15.10;9.38;;;27.80;67.00;;;;;;6218597;23;20051;-78
2021/07/21 10:34:21;;;;;;;17.45;9.98;;;28.20;65.20;;;;;;6218908;23;20005;-78
2021/07/21 10:36:48;;;;;;;15.27;9.60;;;28.60;64.30;;;;;;6218777;23;20393;-78
2021/07/21 10:39:15;;;;;;;15.10;9.30;;;28.40;65.50;;;;;;6218937;23;20066;-79
2021/07/21 10:41:42;;;;;;;16.38;9.20;;;28.50;65.90;;;;;;6218735;23;20011;-78
2021/07/21 10:44:13;;;;;;;14.90;9.85;;;29.20;65.70;;;;;;6218953;23;20079;-78
2021/07/21 10:46:41;;;;;;;15.23;8.75;;;29.30;62.90;;;;;;6217184;23;20401;-79
2021/07/21 10:49:35;;;;;;;14.70;9.00;;;28.70;64.60;;;;;;6192608;23;20009;-79
2021/07/21 11:00:20;;;;;;;16.63;8.95;;;28.90;64.50;;;;;;6217942;23;20058;-78
2021/07/21 11:02:47;;;;;;;15.80;8.93;;;29.10;62.70;;;;;;6220380;23;20001;-79
2021/07/21 11:05:37;;;;;;;15.70;9.27;;;29.10;64.10;;;;;;6194008;23;20009;-78
2021/07/21 11:08:04;;;;;;;17.75;8.85;;;29.00;63.30;;;;;;6194381;23;20270;-79
2021/07/21 11:10:33;;;;;;;16.00;9.88;;;28.50;65.00;;;;;;6220411;23;20416;-79
2021/07/21 11:12:59;;;;;;;16.02;9.30;;;28.20;65.30;;;;;;6220488;23;20095;-78
2021/07/21 11:15:51;;;;;;;13.45;9.00;;;28.30;64.40;;;;;;6218732;23;20424;-79
2021/07/21 11:18:26;;;;;;;16.77;10.07;;;28.50;63.60;;;;;;6219283;23;20050;-79
2021/07/21 11:20:56;;;;;;;18.05;9.55;;;27.90;65.00;;;;;;6219403;23;20020;-78
2021/07/21 11:23:52;;;;;;;16.58;10.00;;;28.00;64.40;;;;;;6219497;23;20001;-79
2021/07/21 11:26:36;;;;;;;17.23;9.43;;;28.00;64.70;;;;;;6219238;23;20003;-79
2021/07/21 11:29:29;;;;;;;20.10;10.00;;;27.90;66.10;;;;;;6192707;23;20055;-79
2021/07/21 11:31:55;;;;;;;18.35;9.25;;;28.00;65.50;;;;;;6220418;23;20008;-79
2021/07/21 11:34:36;;;;;;;16.05;9.43;;;28.40;65.80;;;;;;6220360;23;20080;-79
2021/07/21 11:37:07;;;;;;;18.20;10.52;;;28.30;63.90;;;;;;6194139;23;20004;-79
2021/07/21 11:39:50;;;;;;;16.58;10.15;;;28.30;63.80;;;;;;6220035;23;20322;-79
2021/07/21 11:42:30;;;;;;;13.70;9.32;;;28.30;62.80;;;;;;6220196;23;20005;-79
2021/07/21 11:45:04;;;;;;;16.20;9.98;;;28.30;64.10;;;;;;6214893;23;20306;-78
2021/07/21 11:47:51;;;;;;;16.85;9.55;;;28.30;64.70;;;;;;6219276;23;20001;-79
2021/07/21 11:50:20;;;;;;;14.93;9.27;;;28.30;65.30;;;;;;6213600;23;20060;-79
2021/07/21 11:53:10;;;;;;;14.10;8.98;;;28.10;64.70;;;;;;6215986;23;20131;-79
2021/07/21 11:55:37;;;;;;;15.18;9.27;;;27.80;64.80;;;;;;6189707;23;20646;-79
2021/07/21 11:58:14;;;;;;;18.92;9.88;;;28.20;64.70;;;;;;6215950;23;20059;-79
2021/07/21 12:00:40;;;;;;;23.67;9.95;;;28.20;64.60;;;;;;6215311;23;20248;-79
2021/07/21 12:03:06;;;;;;;15.73;9.30;;;28.40;64.50;;;;;;6214895;23;20024;-80
2021/07/21 12:05:35;;;;;;;14.55;10.13;;;28.60;63.30;;;;;;6215666;23;20279;-80
2021/07/21 12:08:08;;;;;;;17.42;9.93;;;28.00;63.20;;;;;;6216075;23;20382;-80
2021/07/21 12:10:35;;;;;;;14.50;9.60;;;27.70;65.10;;;;;;6188973;23;20009;-79
2021/07/21 12:13:11;;;;;;;16.80;9.77;;;27.50;64.60;;;;;;6215194;23;20004;-78
2021/07/21 12:15:39;;;;;;;17.77;9.18;;;27.90;66.00;;;;;;6214428;23;20000;-79
2021/07/21 12:18:12;;;;;;;12.70;8.82;;;28.30;65.30;;;;;;6215526;23;19993;-78
2021/07/21 12:20:38;;;;;;;15.63;10.30;;;28.40;64.30;;;;;;6189700;23;20279;-78
2021/07/21 12:23:04;;;;;;;14.70;9.50;;;28.60;63.00;;;;;;6216467;23;20339;-76
2021/07/21 12:25:31;;;;;;;14.68;9.55;;;28.60;62.00;;;;;;6215166;23;20032;-77
2021/07/21 12:27:58;;;;;;;18.85;9.40;;;28.70;63.10;;;;;;6215849;23;20005;-77
2021/07/21 12:30:25;;;;;;;15.40;9.85;;;28.60;64.20;;;;;;6214715;23;20269;-79
2021/07/21 12:32:52;;;;;;;13.38;9.07;;;28.60;62.90;;;;;;6215786;23;20011;-78
2021/07/21 12:35:26;;;;;;;15.55;9.27;;;28.80;64.40;;;;;;6189970;23;20030;-78
2021/07/21 12:37:53;;;;;;;13.60;9.32;;;28.90;61.60;;;;;;6215759;23;20001;-78
2021/07/21 12:40:22;;;;;;;18.20;9.27;;;28.80;64.10;;;;;;6216242;23;20064;-79
2021/07/21 12:42:51;;;;;;;15.55;8.57;;;28.70;62.50;;;;;;6215958;23;20028;-79
2021/07/21 12:45:20;;;;;;;15.50;9.02;;;29.20;63.20;;;;;;6214355;23;20028;-79
2021/07/21 12:47:55;;;;;;;16.63;9.35;;;29.30;62.80;;;;;;6216044;23;20432;-78
2021/07/21 12:50:26;;;;;;;16.25;10.00;;;29.40;63.80;;;;;;6215997;23;20244;-79